Time;durP1;ratioP1;P1;durP2;ratioP2;P2;SDS_P1;SDS_P2;PMS_P1;PMS_P2;Temp;Humidity;BMP_temperature;BMP_pressure;BME280_temperature;BME280_humidity;BME280_pressure;Samples;Min_cycle;Max_cycle;Signal;HPM_P1;HPM_P2
2023/08/31 00:00:42;;;;;;;12.98;6.93;;;10.80;99.90;;;;;;5001144;28;20045;-73
2023/08/31 00:03:09;;;;;;;17.15;6.78;;;10.80;99.90;;;;;;5025329;28;20041;-73
2023/08/31 00:05:42;;;;;;;10.75;5.70;;;10.80;99.90;;;;;;4960949;28;20046;-73
2023/08/31 00:08:09;;;;;;;12.95;6.03;;;10.80;99.90;;;;;;5030181;28;20038;-73
2023/08/31 00:10:35;;;;;;;8.52;5.32;;;10.70;99.90;;;;;;5006768;28;20563;-73
2023/08/31 00:13:02;;;;;;;10.23;5.50;;;10.70;99.90;;;;;;5016020;28;20526;-73
2023/08/31 00:15:29;;;;;;;11.50;6.07;;;10.70;99.90;;;;;;5002973;28;20088;-73
2023/08/31 00:17:54;;;;;;;9.90;5.60;;;10.70;99.90;;;;;;4997096;28;20084;-73
2023/08/31 00:20:21;;;;;;;9.63;5.90;;;10.70;99.90;;;;;;5025253;28;20129;-73
2023/08/31 00:22:48;;;;;;;10.50;5.80;;;10.60;99.90;;;;;;5011116;28;20237;-73
2023/08/31 00:25:13;;;;;;;10.40;5.90;;;10.60;99.90;;;;;;4985054;28;20033;-73
2023/08/31 00:27:40;;;;;;;9.35;5.22;;;10.60;99.90;;;;;;4973310;28;20515;-73
2023/08/31 00:30:11;;;;;;;9.85;5.18;;;10.60;99.90;;;;;;5010099;28;20081;-73
2023/08/31 00:32:37;;;;;;;12.52;5.93;;;10.50;99.90;;;;;;5008037;28;20472;-73
2023/08/31 00:35:03;;;;;;;11.30;5.65;;;10.60;99.90;;;;;;4991099;28;20072;-73
2023/08/31 00:37:29;;;;;;;10.50;5.55;;;10.60;99.90;;;;;;5026604;28;20042;-73
2023/08/31 00:39:55;;;;;;;10.65;5.70;;;10.60;99.90;;;;;;5009050;28;20064;-73
2023/08/31 00:42:21;;;;;;;11.40;5.43;;;10.60;99.90;;;;;;4973937;28;20451;-74
2023/08/31 00:44:48;;;;;;;10.60;5.53;;;10.50;99.90;;;;;;4994454;28;20079;-73
2023/08/31 00:47:14;;;;;;;14.68;5.95;;;10.50;99.90;;;;;;4999513;28;20058;-73
2023/08/31 00:49:41;;;;;;;12.98;5.93;;;10.50;99.90;;;;;;5004530;28;20471;-74
2023/08/31 00:52:07;;;;;;;13.43;6.07;;;10.60;99.90;;;;;;4994187;28;20116;-73
2023/08/31 00:54:34;;;;;;;14.10;6.35;;;10.50;99.90;;;;;;4975992;28;20038;-73
2023/08/31 00:57:00;;;;;;;22.27;6.80;;;10.60;99.90;;;;;;4990978;28;20105;-72
2023/08/31 00:59:26;;;;;;;19.60;6.07;;;10.60;99.90;;;;;;5029915;28;20049;-73
2023/08/31 01:01:55;;;;;;;9.23;5.60;;;10.50;99.90;;;;;;5008646;28;20698;-73
2023/08/31 01:04:29;;;;;;;12.50;6.07;;;10.50;99.90;;;;;;4997525;28;20064;-72
2023/08/31 01:07:11;;;;;;;11.20;6.00;;;10.60;99.90;;;;;;5007259;28;20088;-72
2023/08/31 01:09:46;;;;;;;11.98;6.25;;;10.60;99.90;;;;;;4999781;28;20392;-72
2023/08/31 01:12:29;;;;;;;10.90;5.93;;;10.60;99.90;;;;;;5025404;28;20065;-72
2023/08/31 01:15:09;;;;;;;14.05;6.22;;;10.60;99.90;;;;;;5014446;28;20042;-72
2023/08/31 01:17:47;;;;;;;14.85;6.47;;;10.60;99.90;;;;;;5002629;28;20042;-73
2023/08/31 01:20:19;;;;;;;15.13;5.93;;;10.50;99.90;;;;;;5042131;28;20037;-72
2023/08/31 01:22:55;;;;;;;10.65;6.05;;;10.50;99.90;;;;;;4997681;28;20099;-72
2023/08/31 01:25:21;;;;;;;13.68;7.05;;;10.50;99.90;;;;;;4998204;28;20046;-73
2023/08/31 01:27:47;;;;;;;10.68;6.00;;;10.50;99.90;;;;;;4993859;28;20500;-72
2023/08/31 01:30:13;;;;;;;9.43;6.00;;;10.50;99.90;;;;;;5006956;28;20038;-73
2023/08/31 01:32:45;;;;;;;11.68;6.60;;;10.50;99.90;;;;;;4987452;28;20050;-74
2023/08/31 01:35:13;;;;;;;12.50;6.10;;;10.50;99.90;;;;;;4998189;28;20117;-73
2023/08/31 01:37:52;;;;;;;14.18;6.55;;;10.40;99.90;;;;;;5007254;28;20041;-73
2023/08/31 01:40:26;;;;;;;12.63;6.20;;;10.40;99.90;;;;;;5010169;28;20407;-73
2023/08/31 01:42:54;;;;;;;13.77;6.22;;;10.40;99.90;;;;;;5014641;28;20129;-73
2023/08/31 01:45:22;;;;;;;14.85;6.43;;;10.40;99.90;;;;;;5017080;28;20038;-73
2023/08/31 01:47:48;;;;;;;8.85;6.45;;;10.40;99.90;;;;;;5005477;28;20454;-73
2023/08/31 01:50:13;;;;;;;13.10;7.00;;;10.40;99.90;;;;;;4995311;28;20038;-73
2023/08/31 01:52:39;;;;;;;13.50;7.03;;;10.40;99.90;;;;;;5009378;28;20091;-74
2023/08/31 01:55:06;;;;;;;13.50;6.90;;;10.40;99.90;;;;;;5004672;28;20159;-74
2023/08/31 01:57:33;;;;;;;11.77;7.30;;;10.40;99.90;;;;;;5020575;28;20045;-73
2023/08/31 01:59:59;;;;;;;15.73;7.20;;;10.40;99.90;;;;;;5000286;28;20082;-73
2023/08/31 02:02:25;;;;;;;17.17;7.20;;;10.40;99.90;;;;;;5027169;28;20042;-73
2023/08/31 02:04:51;;;;;;;15.77;8.35;;;10.40;99.90;;;;;;5014499;28;20042;-73
2023/08/31 02:07:17;;;;;;;15.20;7.68;;;10.40;99.90;;;;;;5026375;28;20038;-73
2023/08/31 02:09:43;;;;;;;13.68;7.93;;;10.40;99.90;;;;;;5022860;28;20125;-73
2023/08/31 02:12:12;;;;;;;14.20;8.02;;;10.30;99.90;;;;;;5031168;28;20584;-72
2023/08/31 02:14:38;;;;;;;15.10;7.93;;;10.40;99.90;;;;;;5010544;28;20041;-73
2023/08/31 02:17:04;;;;;;;13.52;8.25;;;10.40;99.90;;;;;;4982110;28;20046;-72
2023/08/31 02:19:30;;;;;;;14.75;8.98;;;10.40;99.90;;;;;;5014724;28;20034;-72
2023/08/31 02:21:55;;;;;;;16.75;9.30;;;10.40;99.90;;;;;;5048438;28;20038;-73
2023/08/31 02:24:21;;;;;;;16.20;9.15;;;10.30;99.90;;;;;;4999008;28;20411;-72
2023/08/31 02:26:49;;;;;;;14.98;8.13;;;10.30;99.90;;;;;;5056521;28;20029;-72
2023/08/31 02:29:14;;;;;;;15.90;9.40;;;10.30;99.90;;;;;;5003908;28;20125;-73
2023/08/31 02:31:41;;;;;;;14.23;9.50;;;10.30;99.90;;;;;;5004896;28;20125;-72
2023/08/31 02:34:07;;;;;;;19.40;9.63;;;10.30;99.90;;;;;;4993457;28;20034;-72
2023/08/31 02:36:33;;;;;;;16.48;9.73;;;10.30;99.90;;;;;;5005723;28;20506;-70
2023/08/31 02:38:58;;;;;;;17.08;9.70;;;10.30;99.90;;;;;;4956452;28;20092;-70
2023/08/31 02:41:24;;;;;;;14.73;10.27;;;10.30;99.90;;;;;;5034260;28;20038;-70
2023/08/31 02:43:51;;;;;;;14.10;10.57;;;10.40;99.90;;;;;;4990242;28;20092;-70
2023/08/31 02:46:17;;;;;;;17.05;10.38;;;10.40;99.90;;;;;;4997335;28;20077;-70
2023/08/31 02:48:44;;;;;;;14.32;10.10;;;10.40;99.90;;;;;;5019625;28;20078;-70
2023/08/31 02:51:09;;;;;;;18.30;10.50;;;10.40;99.90;;;;;;5023472;28;20369;-70
2023/08/31 02:53:35;;;;;;;17.23;11.00;;;10.50;99.90;;;;;;4998216;28;20040;-70
2023/08/31 02:56:01;;;;;;;19.30;10.68;;;10.50;99.90;;;;;;4971846;28;20491;-69
2023/08/31 02:58:27;;;;;;;17.60;11.32;;;10.50;99.90;;;;;;5002667;28;20034;-70
2023/08/31 03:00:53;;;;;;;15.00;10.30;;;10.50;99.90;;;;;;5050304;28;20057;-70
2023/08/31 03:03:19;;;;;;;17.38;11.07;;;10.50;99.90;;;;;;5040182;28;20042;-70
2023/08/31 03:05:45;;;;;;;21.52;11.90;;;10.50;99.90;;;;;;5007090;28;20064;-70
2023/08/31 03:08:11;;;;;;;18.30;11.38;;;10.50;99.90;;;;;;5035748;28;20076;-70
2023/08/31 03:10:38;;;;;;;19.20;12.05;;;10.50;99.90;;;;;;5019714;28;20034;-70
2023/08/31 03:13:05;;;;;;;19.85;12.18;;;10.50;99.90;;;;;;4988502;28;20082;-70
2023/08/31 03:15:36;;;;;;;20.63;11.90;;;10.50;99.90;;;;;;4997682;28;20423;-70
2023/08/31 03:18:02;;;;;;;22.45;12.85;;;10.40;99.90;;;;;;5037919;28;20038;-70
2023/08/31 03:20:28;;;;;;;16.77;12.23;;;10.40;99.90;;;;;;4993867;28;20073;-69
2023/08/31 03:22:53;;;;;;;18.73;12.20;;;10.40;99.90;;;;;;5038583;28;20034;-70
2023/08/31 03:25:19;;;;;;;18.00;12.40;;;10.40;99.90;;;;;;5019034;28;20115;-70
2023/08/31 03:27:45;;;;;;;17.80;12.38;;;10.30;99.90;;;;;;5008682;28;20080;-70
2023/08/31 03:30:11;;;;;;;19.25;13.10;;;10.30;99.90;;;;;;4981838;28;20495;-70
2023/08/31 03:32:36;;;;;;;18.33;13.27;;;10.30;99.90;;;;;;5034809;28;20265;-70
2023/08/31 03:35:03;;;;;;;18.05;12.93;;;10.30;99.90;;;;;;4985987;28;20042;-70
2023/08/31 03:37:29;;;;;;;19.58;13.25;;;10.20;99.90;;;;;;5034772;28;20053;-70
2023/08/31 03:39:55;;;;;;;18.38;12.63;;;10.20;99.90;;;;;;4983065;28;20034;-70
2023/08/31 03:42:21;;;;;;;20.25;13.13;;;10.20;99.90;;;;;;5010169;28;20037;-70
2023/08/31 03:44:47;;;;;;;19.58;11.52;;;10.20;99.90;;;;;;5003991;28;20503;-70
2023/08/31 03:47:12;;;;;;;16.83;12.40;;;10.20;99.90;;;;;;5002790;28;20099;-70
2023/08/31 03:49:38;;;;;;;18.05;12.50;;;10.20;99.90;;;;;;5042402;28;20069;-70
2023/08/31 03:52:04;;;;;;;18.73;13.05;;;10.10;99.90;;;;;;4999972;28;20072;-70
2023/08/31 03:54:30;;;;;;;16.00;12.32;;;10.10;99.90;;;;;;4978508;28;20041;-70
2023/08/31 03:56:55;;;;;;;19.38;13.38;;;10.10;99.90;;;;;;4991670;28;20041;-70
2023/08/31 03:59:21;;;;;;;16.88;12.27;;;10.20;99.90;;;;;;5008633;28;20420;-70
2023/08/31 04:01:47;;;;;;;16.98;12.60;;;10.20;99.90;;;;;;4997394;28;20041;-71
2023/08/31 04:04:12;;;;;;;14.30;12.05;;;10.20;99.90;;;;;;5002285;28;20423;-70
2023/08/31 04:06:38;;;;;;;13.57;11.57;;;10.30;99.90;;;;;;5005150;28;20038;-70
2023/08/31 04:09:04;;;;;;;15.48;12.18;;;10.30;99.90;;;;;;4991048;28;20045;-70
2023/08/31 04:11:30;;;;;;;15.60;10.85;;;10.30;99.90;;;;;;5021617;28;20085;-70
2023/08/31 04:13:55;;;;;;;10.77;9.65;;;10.30;99.90;;;;;;4994430;28;20507;-70
2023/08/31 04:16:21;;;;;;;15.48;11.63;;;10.30;99.90;;;;;;5021845;28;20045;-70
2023/08/31 04:18:51;;;;;;;12.40;10.80;;;10.30;99.90;;;;;;5025649;28;20080;-69
2023/08/31 04:21:18;;;;;;;14.57;11.48;;;10.30;99.90;;;;;;5010851;28;20057;-70
2023/08/31 04:23:44;;;;;;;13.23;10.65;;;10.30;99.90;;;;;;4995914;28;20399;-70
2023/08/31 04:26:11;;;;;;;13.38;11.32;;;10.30;99.90;;;;;;5026336;28;20042;-70
2023/08/31 04:28:37;;;;;;;15.82;10.77;;;10.30;99.90;;;;;;4995249;28;20084;-70
2023/08/31 04:31:05;;;;;;;14.10;10.88;;;10.30;99.90;;;;;;5010147;28;20124;-70
2023/08/31 04:33:31;;;;;;;13.93;10.55;;;10.30;99.90;;;;;;5025024;28;20490;-69
2023/08/31 04:35:56;;;;;;;13.73;9.82;;;10.40;99.90;;;;;;4986939;28;20129;-69
2023/08/31 04:38:22;;;;;;;12.25;10.95;;;10.40;99.90;;;;;;4989915;28;20128;-69
2023/08/31 04:40:48;;;;;;;12.30;10.43;;;10.40;99.90;;;;;;5025196;28;20510;-70
2023/08/31 04:43:13;;;;;;;13.95;10.63;;;10.40;99.90;;;;;;5041848;28;20073;-69
2023/08/31 04:45:39;;;;;;;11.90;10.15;;;10.40;99.90;;;;;;5009344;28;20376;-69
2023/08/31 04:48:05;;;;;;;12.73;10.40;;;10.40;99.90;;;;;;4994268;28;20570;-70
2023/08/31 04:50:31;;;;;;;14.93;10.45;;;10.40;99.90;;;;;;4993581;28;20038;-69
2023/08/31 04:52:57;;;;;;;10.15;8.80;;;10.40;99.90;;;;;;5002815;28;20653;-69
2023/08/31 04:55:22;;;;;;;11.85;9.60;;;10.50;99.90;;;;;;4990143;28;20502;-70
2023/08/31 04:57:48;;;;;;;14.43;10.35;;;10.50;99.90;;;;;;5003657;28;20033;-69
2023/08/31 05:00:14;;;;;;;11.20;9.38;;;10.50;99.90;;;;;;4984793;28;20088;-70
2023/08/31 05:02:40;;;;;;;14.73;9.95;;;10.50;99.90;;;;;;5023642;28;20038;-70
2023/08/31 05:05:06;;;;;;;14.52;10.18;;;10.50;99.90;;;;;;4990192;28;20380;-69
2023/08/31 05:07:32;;;;;;;11.60;9.95;;;10.50;99.90;;;;;;4998797;28;20038;-70
2023/08/31 05:09:57;;;;;;;13.23;9.43;;;10.50;99.90;;;;;;5005026;28;20438;-69
2023/08/31 05:12:23;;;;;;;11.75;9.60;;;10.50;99.90;;;;;;4991989;28;20112;-69
2023/08/31 05:14:49;;;;;;;10.90;8.98;;;10.50;99.90;;;;;;4960635;28;20038;-69
2023/08/31 05:17:14;;;;;;;12.95;9.35;;;10.50;99.90;;;;;;4990877;28;20042;-69
2023/08/31 05:19:40;;;;;;;11.45;9.13;;;10.60;99.90;;;;;;4994564;28;20034;-70
2023/08/31 05:22:06;;;;;;;13.02;9.88;;;10.60;99.90;;;;;;4992415;28;20038;-70
2023/08/31 05:24:32;;;;;;;12.55;9.40;;;10.60;99.90;;;;;;5010917;28;20046;-69
2023/08/31 05:26:57;;;;;;;12.48;9.40;;;10.60;99.90;;;;;;5010720;28;20490;-70
2023/08/31 05:29:23;;;;;;;13.07;9.73;;;10.60;99.90;;;;;;5040110;28;20046;-70
2023/08/31 05:31:49;;;;;;;14.15;9.50;;;10.60;99.90;;;;;;5015840;28;20080;-70
2023/08/31 05:34:21;;;;;;;12.07;8.73;;;10.60;99.90;;;;;;5011571;28;20069;-70
2023/08/31 05:36:47;;;;;;;12.65;9.57;;;10.60;99.90;;;;;;5038216;28;20038;-69
2023/08/31 05:39:12;;;;;;;14.23;9.88;;;10.60;99.90;;;;;;4989944;28;20095;-70
2023/08/31 05:41:41;;;;;;;11.13;8.73;;;10.60;99.90;;;;;;4998359;28;20030;-70
2023/08/31 05:44:06;;;;;;;17.20;9.82;;;10.60;99.90;;;;;;4989044;28;20038;-70
2023/08/31 05:46:32;;;;;;;12.38;9.43;;;10.60;99.90;;;;;;4985071;28;20038;-70
2023/08/31 05:48:58;;;;;;;14.73;9.93;;;10.70;99.90;;;;;;4986242;28;20561;-69
2023/08/31 05:51:24;;;;;;;12.63;9.02;;;10.70;99.90;;;;;;5036951;28;20048;-70
2023/08/31 05:53:50;;;;;;;9.85;8.85;;;10.70;99.90;;;;;;5007955;28;20041;-70
2023/08/31 05:56:15;;;;;;;11.57;8.90;;;10.70;99.90;;;;;;4983760;28;20121;-69
2023/08/31 05:58:41;;;;;;;11.43;8.75;;;10.80;99.90;;;;;;5009667;28;20111;-69
2023/08/31 06:01:07;;;;;;;13.48;9.27;;;10.80;99.90;;;;;;4991883;28;20070;-70
2023/08/31 06:03:33;;;;;;;12.90;9.13;;;10.90;99.90;;;;;;5025333;28;20034;-70
2023/08/31 06:05:59;;;;;;;12.23;9.70;;;10.90;99.90;;;;;;5005637;28;20494;-69
2023/08/31 06:08:25;;;;;;;12.07;9.50;;;10.90;99.90;;;;;;4989211;28;21498;-69
2023/08/31 06:10:51;;;;;;;14.18;10.02;;;11.00;99.90;;;;;;5010804;28;20049;-70
2023/08/31 06:13:17;;;;;;;13.52;9.52;;;11.10;99.90;;;;;;4985427;28;20046;-70
2023/08/31 06:15:44;;;;;;;13.90;9.50;;;11.10;99.90;;;;;;5005206;28;20045;-70
2023/08/31 06:18:10;;;;;;;12.38;9.38;;;11.10;99.90;;;;;;5008418;28;20041;-69
2023/08/31 06:20:36;;;;;;;13.23;9.40;;;11.20;99.90;;;;;;5008261;28;20032;-70
2023/08/31 06:23:03;;;;;;;13.15;9.05;;;11.20;99.90;;;;;;5002702;28;20367;-70
2023/08/31 06:25:29;;;;;;;13.80;9.43;;;11.30;99.90;;;;;;5006722;28;20054;-70
2023/08/31 06:27:54;;;;;;;11.43;9.32;;;11.50;99.90;;;;;;5037281;28;20509;-70
2023/08/31 06:30:20;;;;;;;11.57;8.75;;;11.40;99.90;;;;;;4989457;28;20273;-70
2023/08/31 06:32:47;;;;;;;14.68;9.38;;;11.40;99.90;;;;;;5001937;28;20073;-70
2023/08/31 06:35:15;;;;;;;16.08;9.55;;;11.40;99.90;;;;;;5000707;28;20378;-70
2023/08/31 06:37:41;;;;;;;11.52;8.88;;;11.50;99.90;;;;;;4992409;28;20084;-70
2023/08/31 06:40:08;;;;;;;10.38;8.70;;;11.50;99.90;;;;;;5002533;28;20045;-70
2023/08/31 06:42:35;;;;;;;10.15;8.15;;;11.60;99.90;;;;;;5031995;28;20372;-70
2023/08/31 06:45:02;;;;;;;11.80;7.90;;;11.60;99.90;;;;;;4979337;28;20045;-70
2023/08/31 06:47:28;;;;;;;11.43;8.05;;;11.70;99.90;;;;;;5020564;28;20048;-69
2023/08/31 06:49:53;;;;;;;11.13;8.40;;;11.80;99.90;;;;;;5004986;28;20037;-69
2023/08/31 06:52:19;;;;;;;12.48;8.77;;;11.90;99.90;;;;;;4987946;28;20041;-70
2023/08/31 06:54:45;;;;;;;13.63;8.77;;;11.90;99.90;;;;;;4989774;28;21872;-70
2023/08/31 06:57:11;;;;;;;11.43;8.32;;;12.00;99.90;;;;;;5004044;28;20517;-70
2023/08/31 06:59:36;;;;;;;11.02;8.48;;;12.10;99.90;;;;;;5002582;28;20199;-70
2023/08/31 07:02:02;;;;;;;12.32;7.63;;;12.20;99.90;;;;;;4986050;28;20095;-70
2023/08/31 07:04:28;;;;;;;13.05;7.10;;;12.30;99.90;;;;;;4996738;28;20056;-70
2023/08/31 07:06:53;;;;;;;8.07;6.90;;;12.30;99.90;;;;;;5007063;28;20054;-70
2023/08/31 07:09:19;;;;;;;12.23;6.45;;;12.40;99.90;;;;;;5020519;28;20033;-71
2023/08/31 07:11:45;;;;;;;11.32;6.72;;;12.50;99.90;;;;;;5035306;28;20072;-70
2023/08/31 07:14:10;;;;;;;10.18;6.32;;;12.60;99.90;;;;;;4987974;28;20562;-70
2023/08/31 07:16:36;;;;;;;11.23;6.50;;;12.70;99.90;;;;;;4986126;28;20491;-69
2023/08/31 07:19:02;;;;;;;10.88;6.45;;;12.80;99.90;;;;;;5003952;28;20057;-70
2023/08/31 07:21:28;;;;;;;11.52;6.63;;;12.90;99.90;;;;;;5002808;28;20382;-69
2023/08/31 07:23:54;;;;;;;9.40;6.57;;;13.00;99.90;;;;;;4986108;28;20041;-70
2023/08/31 07:26:21;;;;;;;7.75;5.38;;;13.10;99.90;;;;;;5033942;28;20507;-70
2023/08/31 07:28:47;;;;;;;11.15;5.68;;;13.30;99.90;;;;;;5003862;28;20499;-71
2023/08/31 07:31:12;;;;;;;9.45;5.30;;;13.40;99.90;;;;;;4998764;28;20053;-70
2023/08/31 07:33:38;;;;;;;10.63;5.00;;;13.50;99.90;;;;;;4990437;28;20044;-70
2023/08/31 07:36:05;;;;;;;12.15;5.68;;;13.70;99.90;;;;;;4999274;28;20237;-70
2023/08/31 07:38:31;;;;;;;6.65;4.93;;;13.80;99.90;;;;;;5025313;28;20041;-70
2023/08/31 07:40:57;;;;;;;8.00;5.00;;;13.90;99.90;;;;;;5034240;28;20482;-71
2023/08/31 07:43:24;;;;;;;7.25;4.57;;;14.00;99.90;;;;;;5008429;28;20078;-70
2023/08/31 07:45:50;;;;;;;7.13;4.47;;;14.10;99.90;;;;;;5006697;28;20107;-70
2023/08/31 07:48:16;;;;;;;7.65;4.53;;;14.20;99.90;;;;;;4992322;28;20037;-70
2023/08/31 07:50:42;;;;;;;8.18;4.50;;;14.30;99.90;;;;;;4993168;28;20046;-70
2023/08/31 07:53:08;;;;;;;7.13;4.00;;;14.40;99.90;;;;;;5011018;28;20075;-70
2023/08/31 07:55:35;;;;;;;7.93;3.78;;;14.40;99.90;;;;;;5023664;28;20049;-69
2023/08/31 07:58:01;;;;;;;6.78;4.15;;;14.50;99.90;;;;;;5034425;28;20403;-69
2023/08/31 08:00:27;;;;;;;9.20;4.00;;;14.50;99.90;;;;;;4986664;28;20493;-70
2023/08/31 08:02:53;;;;;;;5.53;3.78;;;14.60;99.90;;;;;;5007219;28;20037;-69
2023/08/31 08:05:18;;;;;;;8.20;3.55;;;14.60;99.90;;;;;;5007233;28;20130;-70
2023/08/31 08:07:44;;;;;;;5.57;3.33;;;14.80;99.90;;;;;;4976141;28;20052;-69
2023/08/31 08:10:11;;;;;;;5.43;3.30;;;14.90;99.90;;;;;;4991985;28;20061;-70
2023/08/31 08:12:46;;;;;;;7.28;3.30;;;15.00;99.90;;;;;;5026888;28;20050;-69
2023/08/31 08:15:12;;;;;;;5.85;2.80;;;15.10;99.90;;;;;;5012230;28;20182;-69
2023/08/31 08:17:38;;;;;;;5.80;2.50;;;15.20;99.90;;;;;;4996555;28;20517;-69
2023/08/31 08:20:06;;;;;;;10.18;2.78;;;15.40;99.90;;;;;;5017178;28;20076;-70
2023/08/31 08:22:32;;;;;;;6.93;2.65;;;15.50;99.90;;;;;;5019569;28;20095;-69
2023/08/31 08:24:58;;;;;;;5.50;2.63;;;15.60;99.90;;;;;;5009562;28;20049;-69
2023/08/31 08:27:23;;;;;;;6.40;2.50;;;15.70;99.90;;;;;;5003869;28;20034;-69
2023/08/31 08:29:49;;;;;;;5.57;2.42;;;15.60;99.90;;;;;;4990826;28;20052;-70
2023/08/31 08:32:15;;;;;;;7.35;2.65;;;15.50;99.90;;;;;;4991442;28;20034;-69
2023/08/31 08:34:41;;;;;;;6.90;2.33;;;15.40;99.90;;;;;;5014102;28;20076;-69
2023/08/31 08:37:07;;;;;;;5.32;2.55;;;15.40;99.90;;;;;;5006621;28;20043;-70
2023/08/31 08:39:32;;;;;;;3.78;2.30;;;15.50;99.90;;;;;;5008261;28;20051;-70
2023/08/31 08:41:59;;;;;;;5.53;1.90;;;15.60;99.90;;;;;;4989273;28;20090;-70
2023/08/31 08:44:32;;;;;;;4.60;2.15;;;15.60;99.90;;;;;;5000565;28;20578;-70
2023/08/31 08:47:00;;;;;;;5.32;2.58;;;15.80;99.90;;;;;;4996089;28;20033;-70
2023/08/31 08:49:28;;;;;;;6.10;2.50;;;16.00;99.90;;;;;;5010494;28;20041;-70
2023/08/31 08:51:54;;;;;;;4.45;2.00;;;16.10;99.90;;;;;;5005991;28;20569;-70
2023/08/31 08:54:22;;;;;;;4.85;2.40;;;16.20;99.90;;;;;;4990729;28;20133;-70
2023/08/31 08:56:48;;;;;;;6.00;3.30;;;16.30;99.90;;;;;;5023328;28;20041;-70
2023/08/31 08:59:14;;;;;;;8.30;2.08;;;16.40;99.90;;;;;;5014993;28;20033;-70
2023/08/31 09:01:40;;;;;;;5.20;1.98;;;16.60;99.90;;;;;;4997944;28;20033;-69
2023/08/31 09:04:06;;;;;;;5.75;1.70;;;16.70;99.90;;;;;;5010661;28;20038;-69
2023/08/31 09:06:32;;;;;;;9.90;2.50;;;16.70;99.90;;;;;;4995378;28;20103;-70
2023/08/31 09:08:58;;;;;;;4.75;2.00;;;16.60;99.90;;;;;;5000792;28;20422;-69
2023/08/31 09:11:25;;;;;;;3.75;1.67;;;16.40;99.90;;;;;;4992840;28;20056;-69
2023/08/31 09:13:57;;;;;;;4.45;1.60;;;16.40;99.90;;;;;;5003095;28;20107;-70
2023/08/31 09:16:30;;;;;;;3.20;1.52;;;16.50;99.90;;;;;;5022097;28;20320;-69
2023/08/31 09:18:59;;;;;;;4.40;1.55;;;16.60;99.90;;;;;;5021286;28;20068;-68
2023/08/31 09:21:40;;;;;;;5.57;2.00;;;16.30;99.90;;;;;;5009216;28;20450;-69
2023/08/31 09:24:10;;;;;;;3.42;1.63;;;16.10;99.90;;;;;;5018383;28;20095;-69
2023/08/31 09:26:43;;;;;;;4.40;1.45;;;16.00;99.90;;;;;;5036084;28;20192;-69
2023/08/31 09:29:09;;;;;;;3.17;1.30;;;15.80;99.90;;;;;;5004882;28;20033;-69
2023/08/31 09:31:34;;;;;;;6.43;1.98;;;15.50;99.90;;;;;;5017844;28;20245;-67
2023/08/31 09:34:03;;;;;;;5.38;1.20;;;14.90;99.90;;;;;;4988633;28;20056;-68
2023/08/31 09:36:28;;;;;;;4.45;1.20;;;14.30;99.90;;;;;;5007151;28;20040;-69
2023/08/31 09:38:58;;;;;;;2.03;1.00;;;13.80;99.90;;;;;;5010160;28;20045;-69
2023/08/31 09:41:24;;;;;;;4.45;1.23;;;13.60;99.90;;;;;;5013849;28;20033;-69
2023/08/31 09:43:50;;;;;;;3.25;1.25;;;13.40;99.90;;;;;;5007460;28;20417;-69
2023/08/31 09:46:16;;;;;;;1.88;0.95;;;13.30;99.90;;;;;;5009227;28;20042;-69
2023/08/31 09:48:42;;;;;;;3.00;1.17;;;13.50;99.90;;;;;;4985387;28;20346;-70
2023/08/31 09:51:10;;;;;;;4.65;1.27;;;13.50;99.90;;;;;;4985248;28;20065;-72
2023/08/31 09:53:37;;;;;;;6.03;1.52;;;13.70;99.90;;;;;;5024393;28;20560;-72
2023/08/31 09:56:05;;;;;;;5.40;1.58;;;13.80;99.90;;;;;;4993844;28;20573;-71
2023/08/31 09:58:32;;;;;;;7.13;2.08;;;13.80;99.90;;;;;;5035127;28;20053;-72
2023/08/31 10:00:59;;;;;;;8.85;1.73;;;14.00;99.90;;;;;;5004850;28;20067;-72
2023/08/31 10:03:27;;;;;;;3.08;1.67;;;14.10;99.90;;;;;;5031916;28;20120;-71
2023/08/31 10:05:55;;;;;;;1.60;1.38;;;14.40;99.90;;;;;;4988608;28;20049;-71
2023/08/31 10:08:20;;;;;;;7.85;1.50;;;14.60;99.90;;;;;;4985522;28;20518;-73
2023/08/31 10:10:47;;;;;;;4.32;2.10;;;14.70;99.90;;;;;;5005254;28;20038;-72
2023/08/31 10:13:14;;;;;;;2.97;1.45;;;14.90;99.90;;;;;;5034785;28;20207;-73
2023/08/31 10:15:42;;;;;;;4.63;1.95;;;15.00;99.90;;;;;;4986405;28;20029;-73
2023/08/31 10:18:08;;;;;;;3.45;1.50;;;15.10;99.90;;;;;;5002454;28;20049;-71
2023/08/31 10:20:35;;;;;;;4.85;1.40;;;15.10;99.90;;;;;;5006429;28;20041;-73
2023/08/31 10:23:05;;;;;;;5.95;2.10;;;15.10;99.90;;;;;;5008455;28;20116;-72
2023/08/31 10:25:46;;;;;;;3.13;1.60;;;15.10;99.90;;;;;;5024438;28;20034;-71
2023/08/31 10:28:25;;;;;;;4.25;1.88;;;15.10;99.90;;;;;;5012684;28;20969;-72
2023/08/31 10:31:04;;;;;;;4.18;1.67;;;15.10;99.90;;;;;;5005530;28;20403;-72
2023/08/31 10:33:34;;;;;;;4.15;1.80;;;15.40;99.90;;;;;;4998380;28;20510;-72
2023/08/31 10:36:00;;;;;;;2.97;1.48;;;15.70;99.90;;;;;;5019568;28;20154;-72
2023/08/31 10:38:33;;;;;;;5.40;1.70;;;15.70;99.90;;;;;;4986398;28;20487;-72
2023/08/31 10:41:07;;;;;;;;;;;15.60;99.90;;;;;;5003731;28;20046;-72
2023/08/31 10:43:57;;;;;;;4.85;2.00;;;15.60;99.90;;;;;;5040862;28;19971;-72
2023/08/31 10:46:29;;;;;;;3.30;1.80;;;15.70;99.90;;;;;;5001284;28;20490;-72
2023/08/31 10:49:13;;;;;;;4.45;1.50;;;16.00;99.90;;;;;;5000847;28;21012;-71
2023/08/31 10:51:41;;;;;;;3.00;1.50;;;16.30;99.90;;;;;;5013411;28;20115;-71
2023/08/31 10:54:20;;;;;;;2.45;1.10;;;16.60;99.90;;;;;;4997855;28;20045;-72
2023/08/31 10:56:55;;;;;;;3.55;1.27;;;16.90;99.90;;;;;;4998809;28;21334;-71
2023/08/31 10:59:25;;;;;;;5.63;1.50;;;17.10;99.90;;;;;;4985994;28;20034;-72
2023/08/31 11:02:00;;;;;;;4.05;1.30;;;17.10;99.90;;;;;;5027144;28;20077;-71
2023/08/31 11:04:27;;;;;;;2.85;1.20;;;17.10;99.90;;;;;;4973334;28;20118;-71
2023/08/31 11:07:15;;;;;;;2.72;1.30;;;17.10;99.90;;;;;;4998845;28;20041;-72
2023/08/31 11:09:41;;;;;;;3.03;1.13;;;17.10;99.90;;;;;;5008666;28;20042;-71
2023/08/31 11:12:08;;;;;;;2.15;0.73;;;16.80;99.90;;;;;;5035463;28;20057;-70
2023/08/31 11:14:34;;;;;;;2.17;1.00;;;16.50;99.90;;;;;;5009969;28;20057;-71
2023/08/31 11:17:01;;;;;;;7.93;1.95;;;16.10;99.90;;;;;;5044041;28;20045;-70
2023/08/31 11:19:28;;;;;;;3.25;1.50;;;15.70;99.90;;;;;;5027720;28;20539;-72
2023/08/31 11:21:57;;;;;;;5.63;1.80;;;15.30;99.90;;;;;;5010595;28;20120;-72
2023/08/31 11:24:23;;;;;;;14.50;1.58;;;15.00;99.90;;;;;;5009845;28;20034;-74
2023/08/31 11:26:53;;;;;;;4.32;1.90;;;14.90;99.90;;;;;;5024346;28;20087;-74
2023/08/31 11:29:19;;;;;;;4.10;1.92;;;14.90;99.90;;;;;;5007275;28;20492;-74
2023/08/31 11:31:45;;;;;;;4.63;2.05;;;15.10;99.90;;;;;;5005298;28;20037;-75
2023/08/31 11:34:19;;;;;;;2.78;1.88;;;15.40;99.90;;;;;;5001912;28;20449;-73
2023/08/31 11:36:46;;;;;;;9.27;2.05;;;15.70;99.90;;;;;;4988238;28;20515;-74
2023/08/31 11:39:17;;;;;;;4.03;1.90;;;16.00;99.90;;;;;;4992461;28;20045;-73
2023/08/31 11:41:43;;;;;;;4.18;1.80;;;16.30;99.90;;;;;;5025632;28;20041;-73
2023/08/31 11:44:12;;;;;;;5.18;1.70;;;16.50;99.90;;;;;;4996835;28;20037;-73
2023/08/31 11:46:41;;;;;;;5.05;1.98;;;16.90;99.90;;;;;;5008865;28;20045;-74
2023/08/31 11:49:07;;;;;;;8.55;2.30;;;16.60;99.90;;;;;;5014995;28;20085;-73
2023/08/31 11:51:34;;;;;;;11.05;2.03;;;16.60;99.90;;;;;;5030152;28;20564;-73
2023/08/31 11:54:04;;;;;;;3.78;1.60;;;16.50;99.90;;;;;;5000236;28;20038;-73
2023/08/31 11:56:40;;;;;;;6.00;1.90;;;16.30;99.90;;;;;;5040986;28;20184;-73
2023/08/31 11:59:14;;;;;;;5.80;2.13;;;16.40;99.90;;;;;;5033392;28;20061;-72
2023/08/31 12:01:42;;;;;;;9.40;1.70;;;16.40;99.90;;;;;;4991536;28;20111;-73
2023/08/31 12:04:25;;;;;;;4.60;1.38;;;16.70;99.90;;;;;;5024217;28;20076;-70
2023/08/31 12:06:53;;;;;;;3.05;1.15;;;16.60;99.90;;;;;;4990018;28;20410;-70
2023/08/31 12:09:20;;;;;;;3.20;1.45;;;16.70;99.90;;;;;;5020018;28;20581;-70
2023/08/31 12:11:51;;;;;;;5.40;1.60;;;16.80;99.90;;;;;;4993213;28;20076;-72
2023/08/31 12:14:25;;;;;;;2.75;1.50;;;17.00;99.90;;;;;;5017719;28;20399;-71
2023/08/31 12:16:52;;;;;;;7.47;1.92;;;17.20;99.90;;;;;;5005247;28;20088;-71
2023/08/31 12:19:18;;;;;;;3.25;1.23;;;17.20;99.90;;;;;;5006245;28;20046;-71
2023/08/31 12:21:46;;;;;;;3.70;1.40;;;17.30;99.90;;;;;;5022186;28;20475;-71
2023/08/31 12:24:12;;;;;;;4.65;1.10;;;17.40;99.90;;;;;;4991707;28;20050;-71
2023/08/31 12:26:39;;;;;;;4.45;1.50;;;17.40;99.90;;;;;;4994140;28;20041;-72
2023/08/31 12:29:05;;;;;;;1.75;1.17;;;17.30;99.90;;;;;;4990701;28;20042;-72
2023/08/31 12:31:31;;;;;;;1.42;0.88;;;17.30;99.90;;;;;;5003245;28;20133;-71
2023/08/31 12:33:57;;;;;;;3.70;1.65;;;17.20;99.90;;;;;;4989642;28;20132;-71
2023/08/31 12:36:23;;;;;;;5.05;1.48;;;17.30;99.90;;;;;;4989792;28;20567;-71
2023/08/31 12:38:49;;;;;;;3.38;1.00;;;17.60;99.90;;;;;;5021586;28;20049;-71
2023/08/31 12:41:15;;;;;;;2.55;1.10;;;17.90;99.90;;;;;;5002608;28;20036;-71